Johstadt, Germany
Current Conditions -  °F | °C
As of 11:00 PM on Friday 24 Oct 2014 (Local Time) from LKKV Reporting Station
Broken Clouds Broken Clouds  
Wind Chill: 34°   Ceiling: 500
Heat Index: 37°   Visibility: 4mi
Dew Point: 36°   Wind: 5mph
Humidity: 93%   Direction: 140°SE
Pressure: 30.15"   Gusts: NA
Location:  50.55°N, 13.13°E
Report Text: LKKV 242100Z 14004KT 6000 BKN005 03/02 Q1021
Loading
Personal Weather Stations






























Interactive Weather Map
Tropical Storm Tracking
New forecast layout! Learn more

10-Day Weather Forecast

Advertisements
Track Severe Weather on mobile